sensor_id;sensor_type;location;lat;lon;timestamp;temperature;humidity
423;DHT22;198;48.752;9.180;2022-08-03T00:01:46;21.60;94.70
423;DHT22;198;48.752;9.180;2022-08-03T00:04:11;21.50;94.00
423;DHT22;198;48.752;9.180;2022-08-03T00:06:37;21.50;94.60
423;DHT22;198;48.752;9.180;2022-08-03T00:09:04;21.50;95.70
423;DHT22;198;48.752;9.180;2022-08-03T00:11:30;21.50;96.30
423;DHT22;198;48.752;9.180;2022-08-03T00:13:55;21.50;96.50
423;DHT22;198;48.752;9.180;2022-08-03T00:16:20;21.50;96.60
423;DHT22;198;48.752;9.180;2022-08-03T00:18:46;21.50;97.00
423;DHT22;198;48.752;9.180;2022-08-03T00:21:12;21.50;95.30
423;DHT22;198;48.752;9.180;2022-08-03T00:23:37;21.50;94.60
423;DHT22;198;48.752;9.180;2022-08-03T00:26:03;21.50;96.40
423;DHT22;198;48.752;9.180;2022-08-03T00:28:29;21.40;96.20
423;DHT22;198;48.752;9.180;2022-08-03T00:30:54;21.40;96.90
423;DHT22;198;48.752;9.180;2022-08-03T00:33:20;21.40;97.40
423;DHT22;198;48.752;9.180;2022-08-03T00:35:46;21.40;97.90
423;DHT22;198;48.752;9.180;2022-08-03T00:38:11;21.30;98.30
423;DHT22;198;48.752;9.180;2022-08-03T00:40:37;21.30;97.70
423;DHT22;198;48.752;9.180;2022-08-03T00:43:04;21.30;98.50
423;DHT22;198;48.752;9.180;2022-08-03T00:45:33;21.30;99.70
423;DHT22;198;48.752;9.180;2022-08-03T00:47:59;21.30;99.90
423;DHT22;198;48.752;9.180;2022-08-03T00:50:26;21.40;99.90
423;DHT22;198;48.752;9.180;2022-08-03T00:52:55;21.30;99.90
423;DHT22;198;48.752;9.180;2022-08-03T00:55:21;21.30;99.90
423;DHT22;198;48.752;9.180;2022-08-03T00:57:47;21.30;99.90
423;DHT22;198;48.752;9.180;2022-08-03T01:00:16;21.30;99.90
423;DHT22;198;48.752;9.180;2022-08-03T01:02:42;21.30;99.90
423;DHT22;198;48.752;9.180;2022-08-03T01:05:08;21.20;99.90
423;DHT22;198;48.752;9.180;2022-08-03T01:07:50;21.30;99.90
423;DHT22;198;48.752;9.180;2022-08-03T01:13:30;21.20;99.90
423;DHT22;198;48.752;9.180;2022-08-03T01:16:18;21.20;99.90
423;DHT22;198;48.752;9.180;2022-08-03T01:18:54;21.10;99.90
423;DHT22;198;48.752;9.180;2022-08-03T01:21:31;21.10;99.90
423;DHT22;198;48.752;9.180;2022-08-03T01:27:08;21.00;99.90
423;DHT22;198;48.752;9.180;2022-08-03T01:30:03;20.90;99.90
423;DHT22;198;48.752;9.180;2022-08-03T01:32:55;20.90;99.90
423;DHT22;198;48.752;9.180;2022-08-03T01:35:27;20.90;99.90
423;DHT22;198;48.752;9.180;2022-08-03T01:37:56;20.90;99.90
423;DHT22;198;48.752;9.180;2022-08-03T01:40:24;20.90;99.90
423;DHT22;198;48.752;9.180;2022-08-03T01:42:51;20.90;99.90
423;DHT22;198;48.752;9.180;2022-08-03T01:45:20;20.90;99.90
423;DHT22;198;48.752;9.180;2022-08-03T01:47:47;20.90;99.90
423;DHT22;198;48.752;9.180;2022-08-03T01:50:14;20.90;99.90
423;DHT22;198;48.752;9.180;2022-08-03T01:52:43;20.80;99.90
423;DHT22;198;48.752;9.180;2022-08-03T01:55:11;20.80;99.90
423;DHT22;198;48.752;9.180;2022-08-03T01:57:38;20.80;99.90
423;DHT22;198;48.752;9.180;2022-08-03T02:00:05;20.80;99.90
423;DHT22;198;48.752;9.180;2022-08-03T02:02:35;20.80;99.90
423;DHT22;198;48.752;9.180;2022-08-03T02:05:03;20.70;99.90
423;DHT22;198;48.752;9.180;2022-08-03T02:07:32;20.70;99.90
423;DHT22;198;48.752;9.180;2022-08-03T02:10:00;20.70;99.90
423;DHT22;198;48.752;9.180;2022-08-03T02:12:28;20.70;99.90
423;DHT22;198;48.752;9.180;2022-08-03T02:14:56;20.70;99.90
423;DHT22;198;48.752;9.180;2022-08-03T02:17:23;20.70;99.90
423;DHT22;198;48.752;9.180;2022-08-03T02:19:50;20.70;99.90
423;DHT22;198;48.752;9.180;2022-08-03T02:22:16;20.70;99.90
423;DHT22;198;48.752;9.180;2022-08-03T02:24:42;20.60;99.90
423;DHT22;198;48.752;9.180;2022-08-03T02:27:20;20.60;99.90
423;DHT22;198;48.752;9.180;2022-08-03T02:29:50;20.60;99.90
423;DHT22;198;48.752;9.180;2022-08-03T02:32:24;20.60;99.90
423;DHT22;198;48.752;9.180;2022-08-03T02:34:55;20.50;99.90
423;DHT22;198;48.752;9.180;2022-08-03T02:37:26;20.50;99.90
423;DHT22;198;48.752;9.180;2022-08-03T02:39:56;20.50;99.90
423;DHT22;198;48.752;9.180;2022-08-03T02:42:23;20.50;99.90
423;DHT22;198;48.752;9.180;2022-08-03T02:44:50;20.40;99.90
423;DHT22;198;48.752;9.180;2022-08-03T02:47:19;20.40;99.90
423;DHT22;198;48.752;9.180;2022-08-03T02:49:47;20.40;99.90
423;DHT22;198;48.752;9.180;2022-08-03T02:52:13;20.40;99.90
423;DHT22;198;48.752;9.180;2022-08-03T02:54:40;20.40;99.90
423;DHT22;198;48.752;9.180;2022-08-03T02:57:07;20.30;99.90
423;DHT22;198;48.752;9.180;2022-08-03T02:59:33;20.30;99.90
423;DHT22;198;48.752;9.180;2022-08-03T03:02:00;20.30;99.90
423;DHT22;198;48.752;9.180;2022-08-03T03:04:28;20.30;99.90
423;DHT22;198;48.752;9.180;2022-08-03T03:06:55;20.20;99.90
423;DHT22;198;48.752;9.180;2022-08-03T03:09:21;20.20;99.90
423;DHT22;198;48.752;9.180;2022-08-03T03:11:48;20.20;99.90
423;DHT22;198;48.752;9.180;2022-08-03T03:14:15;20.20;99.90
423;DHT22;198;48.752;9.180;2022-08-03T03:16:42;20.20;99.90
423;DHT22;198;48.752;9.180;2022-08-03T03:19:10;20.20;99.90
423;DHT22;198;48.752;9.180;2022-08-03T03:21:37;20.20;99.90
423;DHT22;198;48.752;9.180;2022-08-03T03:24:05;20.10;99.90
423;DHT22;198;48.752;9.180;2022-08-03T03:26:31;20.10;99.90
423;DHT22;198;48.752;9.180;2022-08-03T03:28:57;20.10;99.90
423;DHT22;198;48.752;9.180;2022-08-03T03:31:23;20.00;99.90
423;DHT22;198;48.752;9.180;2022-08-03T03:33:49;20.00;99.90
423;DHT22;198;48.752;9.180;2022-08-03T03:36:14;20.00;99.90
423;DHT22;198;48.752;9.180;2022-08-03T03:38:40;19.90;99.90
423;DHT22;198;48.752;9.180;2022-08-03T03:41:05;19.90;99.90
423;DHT22;198;48.752;9.180;2022-08-03T03:43:31;19.90;99.90
423;DHT22;198;48.752;9.180;2022-08-03T03:45:58;19.90;99.90
423;DHT22;198;48.752;9.180;2022-08-03T03:48:25;19.90;99.90
423;DHT22;198;48.752;9.180;2022-08-03T03:50:51;19.90;99.90
423;DHT22;198;48.752;9.180;2022-08-03T03:53:17;19.90;99.90
423;DHT22;198;48.752;9.180;2022-08-03T03:55:43;19.90;99.90
423;DHT22;198;48.752;9.180;2022-08-03T03:58:08;19.90;99.90
423;DHT22;198;48.752;9.180;2022-08-03T04:00:34;19.90;99.90
423;DHT22;198;48.752;9.180;2022-08-03T04:02:59;19.90;99.90
423;DHT22;198;48.752;9.180;2022-08-03T04:05:25;19.90;99.90
423;DHT22;198;48.752;9.180;2022-08-03T04:08:12;19.90;99.90
423;DHT22;198;48.752;9.180;2022-08-03T04:11:18;19.90;99.90
423;DHT22;198;48.752;9.180;2022-08-03T04:16:24;19.90;99.90
423;DHT22;198;48.752;9.180;2022-08-03T04:18:54;20.00;99.90
423;DHT22;198;48.752;9.180;2022-08-03T04:21:20;20.00;99.90
423;DHT22;198;48.752;9.180;2022-08-03T04:23:49;20.00;99.90
423;DHT22;198;48.752;9.180;2022-08-03T04:26:20;20.00;99.90
423;DHT22;198;48.752;9.180;2022-08-03T04:28:47;20.00;99.90
423;DHT22;198;48.752;9.180;2022-08-03T04:31:15;20.10;99.90
423;DHT22;198;48.752;9.180;2022-08-03T04:33:43;20.10;99.90
423;DHT22;198;48.752;9.180;2022-08-03T04:36:11;20.10;99.90
423;DHT22;198;48.752;9.180;2022-08-03T04:38:49;20.20;99.90
423;DHT22;198;48.752;9.180;2022-08-03T04:41:18;20.20;99.90
423;DHT22;198;48.752;9.180;2022-08-03T04:43:44;20.30;99.90
423;DHT22;198;48.752;9.180;2022-08-03T04:46:11;20.40;99.90
423;DHT22;198;48.752;9.180;2022-08-03T04:48:37;20.40;99.90
423;DHT22;198;48.752;9.180;2022-08-03T04:51:03;20.50;99.90
423;DHT22;198;48.752;9.180;2022-08-03T04:53:29;20.50;99.90
423;DHT22;198;48.752;9.180;2022-08-03T04:56:03;20.50;99.90
423;DHT22;198;48.752;9.180;2022-08-03T04:58:28;20.60;99.90
423;DHT22;198;48.752;9.180;2022-08-03T05:00:54;20.60;99.90
423;DHT22;198;48.752;9.180;2022-08-03T05:03:19;20.60;99.90
423;DHT22;198;48.752;9.180;2022-08-03T05:05:45;20.60;99.90
423;DHT22;198;48.752;9.180;2022-08-03T05:08:10;20.60;99.90
423;DHT22;198;48.752;9.180;2022-08-03T05:10:36;20.70;99.90
423;DHT22;198;48.752;9.180;2022-08-03T05:13:01;20.70;99.90
423;DHT22;198;48.752;9.180;2022-08-03T05:15:27;20.70;99.90
423;DHT22;198;48.752;9.180;2022-08-03T05:17:52;20.80;99.90
423;DHT22;198;48.752;9.180;2022-08-03T05:20:18;20.90;99.90
423;DHT22;198;48.752;9.180;2022-08-03T05:22:43;20.90;99.90
423;DHT22;198;48.752;9.180;2022-08-03T05:25:09;20.90;99.90
423;DHT22;198;48.752;9.180;2022-08-03T05:27:34;21.00;99.90
423;DHT22;198;48.752;9.180;2022-08-03T05:30:00;21.10;99.90
423;DHT22;198;48.752;9.180;2022-08-03T05:32:26;21.10;99.90
423;DHT22;198;48.752;9.180;2022-08-03T05:34:51;21.10;99.90
423;DHT22;198;48.752;9.180;2022-08-03T05:37:17;21.10;99.90
423;DHT22;198;48.752;9.180;2022-08-03T05:39:42;21.20;99.90
423;DHT22;198;48.752;9.180;2022-08-03T05:42:08;21.30;99.90
423;DHT22;198;48.752;9.180;2022-08-03T05:44:35;21.30;99.90
423;DHT22;198;48.752;9.180;2022-08-03T05:47:03;21.40;99.90
423;DHT22;198;48.752;9.180;2022-08-03T05:49:29;21.40;99.90
423;DHT22;198;48.752;9.180;2022-08-03T05:51:54;21.50;99.90
423;DHT22;198;48.752;9.180;2022-08-03T05:54:20;21.50;99.90
423;DHT22;198;48.752;9.180;2022-08-03T05:56:45;21.60;99.90
423;DHT22;198;48.752;9.180;2022-08-03T05:59:11;21.60;99.90
423;DHT22;198;48.752;9.180;2022-08-03T06:01:36;21.60;99.90
423;DHT22;198;48.752;9.180;2022-08-03T06:04:02;21.60;99.90
423;DHT22;198;48.752;9.180;2022-08-03T06:06:28;21.70;99.90
423;DHT22;198;48.752;9.180;2022-08-03T06:08:53;21.70;99.90
423;DHT22;198;48.752;9.180;2022-08-03T06:11:19;21.70;99.90
423;DHT22;198;48.752;9.180;2022-08-03T06:13:44;21.80;99.90
423;DHT22;198;48.752;9.180;2022-08-03T06:16:10;21.90;99.90
423;DHT22;198;48.752;9.180;2022-08-03T06:18:36;21.90;99.90
423;DHT22;198;48.752;9.180;2022-08-03T06:21:02;22.00;99.90
423;DHT22;198;48.752;9.180;2022-08-03T06:23:27;22.10;99.90
423;DHT22;198;48.752;9.180;2022-08-03T06:25:53;22.10;99.90
423;DHT22;198;48.752;9.180;2022-08-03T06:28:18;22.20;99.90
423;DHT22;198;48.752;9.180;2022-08-03T06:30:45;22.20;99.90
423;DHT22;198;48.752;9.180;2022-08-03T06:33:10;22.20;99.90
423;DHT22;198;48.752;9.180;2022-08-03T06:35:37;22.30;99.90
423;DHT22;198;48.752;9.180;2022-08-03T06:38:02;22.40;99.90
423;DHT22;198;48.752;9.180;2022-08-03T06:40:28;22.40;99.90
423;DHT22;198;48.752;9.180;2022-08-03T06:42:58;22.50;99.90
423;DHT22;198;48.752;9.180;2022-08-03T06:45:24;22.60;99.90
423;DHT22;198;48.752;9.180;2022-08-03T06:48:04;22.60;99.90
423;DHT22;198;48.752;9.180;2022-08-03T06:50:31;22.70;99.90
423;DHT22;198;48.752;9.180;2022-08-03T06:52:57;22.70;99.90
423;DHT22;198;48.752;9.180;2022-08-03T06:55:22;22.80;99.90
423;DHT22;198;48.752;9.180;2022-08-03T06:57:48;22.90;99.90
423;DHT22;198;48.752;9.180;2022-08-03T07:00:14;23.10;99.90
423;DHT22;198;48.752;9.180;2022-08-03T07:02:40;23.20;99.90
423;DHT22;198;48.752;9.180;2022-08-03T07:05:06;23.30;99.90
423;DHT22;198;48.752;9.180;2022-08-03T07:07:32;23.40;99.90
423;DHT22;198;48.752;9.180;2022-08-03T07:09:57;23.50;99.90
423;DHT22;198;48.752;9.180;2022-08-03T07:12:23;23.50;99.90
423;DHT22;198;48.752;9.180;2022-08-03T07:14:49;23.60;99.90
423;DHT22;198;48.752;9.180;2022-08-03T07:17:14;23.70;99.90
423;DHT22;198;48.752;9.180;2022-08-03T07:19:40;23.80;99.90
423;DHT22;198;48.752;9.180;2022-08-03T07:22:05;23.80;99.90
423;DHT22;198;48.752;9.180;2022-08-03T07:24:33;23.90;99.10
423;DHT22;198;48.752;9.180;2022-08-03T07:26:58;24.00;99.30
423;DHT22;198;48.752;9.180;2022-08-03T07:29:24;24.00;98.40
423;DHT22;198;48.752;9.180;2022-08-03T07:31:49;24.10;98.60
423;DHT22;198;48.752;9.180;2022-08-03T07:34:15;24.30;97.90
423;DHT22;198;48.752;9.180;2022-08-03T07:36:40;24.30;97.90
423;DHT22;198;48.752;9.180;2022-08-03T07:39:06;24.40;96.30
423;DHT22;198;48.752;9.180;2022-08-03T07:41:32;24.40;96.60
423;DHT22;198;48.752;9.180;2022-08-03T07:43:57;24.50;96.00
423;DHT22;198;48.752;9.180;2022-08-03T07:46:23;24.60;94.70
423;DHT22;198;48.752;9.180;2022-08-03T07:48:48;24.70;95.40
423;DHT22;198;48.752;9.180;2022-08-03T07:51:14;24.80;94.90
423;DHT22;198;48.752;9.180;2022-08-03T07:53:39;24.90;94.80
423;DHT22;198;48.752;9.180;2022-08-03T07:56:05;24.80;94.90
423;DHT22;198;48.752;9.180;2022-08-03T07:58:30;24.90;93.50
423;DHT22;198;48.752;9.180;2022-08-03T08:00:56;25.00;94.10
423;DHT22;198;48.752;9.180;2022-08-03T08:03:21;25.20;94.10
423;DHT22;198;48.752;9.180;2022-08-03T08:05:47;25.20;94.20
423;DHT22;198;48.752;9.180;2022-08-03T08:08:13;25.30;92.70
423;DHT22;198;48.752;9.180;2022-08-03T08:10:39;25.40;93.40
423;DHT22;198;48.752;9.180;2022-08-03T08:13:04;25.50;92.40
423;DHT22;198;48.752;9.180;2022-08-03T08:15:30;25.50;92.30
423;DHT22;198;48.752;9.180;2022-08-03T08:17:58;25.60;92.10
423;DHT22;198;48.752;9.180;2022-08-03T08:20:27;25.70;90.40
423;DHT22;198;48.752;9.180;2022-08-03T08:23:01;25.80;88.80
423;DHT22;198;48.752;9.180;2022-08-03T08:25:28;25.70;87.90
423;DHT22;198;48.752;9.180;2022-08-03T08:27:54;25.80;87.50
423;DHT22;198;48.752;9.180;2022-08-03T08:30:21;25.90;85.30
423;DHT22;198;48.752;9.180;2022-08-03T08:32:48;26.10;83.40
423;DHT22;198;48.752;9.180;2022-08-03T08:35:15;26.20;82.70
423;DHT22;198;48.752;9.180;2022-08-03T08:37:41;26.20;83.20
423;DHT22;198;48.752;9.180;2022-08-03T08:40:08;26.30;82.00
423;DHT22;198;48.752;9.180;2022-08-03T08:42:38;26.40;82.20
423;DHT22;198;48.752;9.180;2022-08-03T08:45:04;26.50;79.00
423;DHT22;198;48.752;9.180;2022-08-03T08:47:31;26.50;79.00
423;DHT22;198;48.752;9.180;2022-08-03T08:49:58;26.50;79.60
423;DHT22;198;48.752;9.180;2022-08-03T08:52:26;26.60;80.90
423;DHT22;198;48.752;9.180;2022-08-03T08:55:00;26.70;81.60
423;DHT22;198;48.752;9.180;2022-08-03T08:57:31;26.80;79.70
423;DHT22;198;48.752;9.180;2022-08-03T08:59:58;26.90;79.80
423;DHT22;198;48.752;9.180;2022-08-03T09:02:24;27.10;74.80
423;DHT22;198;48.752;9.180;2022-08-03T09:04:50;27.20;78.50
423;DHT22;198;48.752;9.180;2022-08-03T09:07:16;27.30;76.90
423;DHT22;198;48.752;9.180;2022-08-03T09:09:42;27.40;74.20
423;DHT22;198;48.752;9.180;2022-08-03T09:12:08;27.40;74.70
423;DHT22;198;48.752;9.180;2022-08-03T09:14:34;27.50;72.00
423;DHT22;198;48.752;9.180;2022-08-03T09:17:00;27.70;70.30
423;DHT22;198;48.752;9.180;2022-08-03T09:19:27;27.90;69.00
423;DHT22;198;48.752;9.180;2022-08-03T09:22:11;28.00;70.20
423;DHT22;198;48.752;9.180;2022-08-03T09:24:53;28.20;67.40
423;DHT22;198;48.752;9.180;2022-08-03T09:27:19;28.50;67.10
423;DHT22;198;48.752;9.180;2022-08-03T09:29:49;28.70;64.70
423;DHT22;198;48.752;9.180;2022-08-03T09:32:22;28.90;61.10
423;DHT22;198;48.752;9.180;2022-08-03T09:34:49;29.20;60.80
423;DHT22;198;48.752;9.180;2022-08-03T09:37:17;29.50;58.20
423;DHT22;198;48.752;9.180;2022-08-03T09:39:43;29.70;57.30
423;DHT22;198;48.752;9.180;2022-08-03T09:42:12;30.00;54.70
423;DHT22;198;48.752;9.180;2022-08-03T09:44:43;30.30;54.60
423;DHT22;198;48.752;9.180;2022-08-03T09:47:10;30.70;56.50
423;DHT22;198;48.752;9.180;2022-08-03T09:49:36;31.00;53.70
423;DHT22;198;48.752;9.180;2022-08-03T09:52:12;31.60;51.10
423;DHT22;198;48.752;9.180;2022-08-03T09:54:39;32.30;48.30
423;DHT22;198;48.752;9.180;2022-08-03T09:57:05;33.40;48.20
423;DHT22;198;48.752;9.180;2022-08-03T09:59:32;34.60;45.00
423;DHT22;198;48.752;9.180;2022-08-03T10:01:58;35.80;40.90
423;DHT22;198;48.752;9.180;2022-08-03T10:04:27;37.10;39.80
423;DHT22;198;48.752;9.180;2022-08-03T10:07:06;38.90;36.60
423;DHT22;198;48.752;9.180;2022-08-03T10:09:34;40.70;35.10
423;DHT22;198;48.752;9.180;2022-08-03T10:12:12;42.60;33.80
423;DHT22;198;48.752;9.180;2022-08-03T10:14:39;44.60;31.10
423;DHT22;198;48.752;9.180;2022-08-03T10:17:04;46.40;26.90
423;DHT22;198;48.752;9.180;2022-08-03T10:19:30;47.00;27.00
423;DHT22;198;48.752;9.180;2022-08-03T10:22:01;48.10;25.60
423;DHT22;198;48.752;9.180;2022-08-03T10:24:29;49.50;25.30
423;DHT22;198;48.752;9.180;2022-08-03T10:27:03;50.00;23.90
423;DHT22;198;48.752;9.180;2022-08-03T10:29:43;51.00;23.60
423;DHT22;198;48.752;9.180;2022-08-03T10:32:14;52.00;22.60
423;DHT22;198;48.752;9.180;2022-08-03T10:34:44;53.10;21.50
423;DHT22;198;48.752;9.180;2022-08-03T10:37:10;53.90;21.40
423;DHT22;198;48.752;9.180;2022-08-03T10:39:38;54.50;20.60
423;DHT22;198;48.752;9.180;2022-08-03T10:42:23;55.30;19.90
423;DHT22;198;48.752;9.180;2022-08-03T10:44:59;55.60;19.90
423;DHT22;198;48.752;9.180;2022-08-03T10:47:27;56.30;19.40
423;DHT22;198;48.752;9.180;2022-08-03T10:49:53;56.20;19.50
423;DHT22;198;48.752;9.180;2022-08-03T10:52:19;57.20;19.50
423;DHT22;198;48.752;9.180;2022-08-03T10:54:45;58.10;18.30
423;DHT22;198;48.752;9.180;2022-08-03T10:57:52;57.10;18.30
423;DHT22;198;48.752;9.180;2022-08-03T11:00:20;58.10;18.60
423;DHT22;198;48.752;9.180;2022-08-03T11:03:06;58.20;18.20
423;DHT22;198;48.752;9.180;2022-08-03T11:05:35;57.30;18.70
423;DHT22;198;48.752;9.180;2022-08-03T11:10:42;59.30;17.70
423;DHT22;198;48.752;9.180;2022-08-03T11:13:08;60.00;17.90
423;DHT22;198;48.752;9.180;2022-08-03T11:15:35;60.90;17.90
423;DHT22;198;48.752;9.180;2022-08-03T11:18:09;60.90;17.30
423;DHT22;198;48.752;9.180;2022-08-03T11:20:58;59.50;17.50
423;DHT22;198;48.752;9.180;2022-08-03T11:23:44;59.40;18.10
423;DHT22;198;48.752;9.180;2022-08-03T11:26:11;59.00;17.80
423;DHT22;198;48.752;9.180;2022-08-03T11:28:37;58.40;18.10
423;DHT22;198;48.752;9.180;2022-08-03T11:34:06;58.60;17.90
423;DHT22;198;48.752;9.180;2022-08-03T11:39:42;58.70;18.30
423;DHT22;198;48.752;9.180;2022-08-03T11:44:52;59.10;18.70
423;DHT22;198;48.752;9.180;2022-08-03T11:47:19;59.80;17.60
423;DHT22;198;48.752;9.180;2022-08-03T11:49:46;59.80;17.80
423;DHT22;198;48.752;9.180;2022-08-03T11:52:12;60.00;17.50
423;DHT22;198;48.752;9.180;2022-08-03T11:54:38;60.50;17.20
423;DHT22;198;48.752;9.180;2022-08-03T11:57:04;58.70;17.80
423;DHT22;198;48.752;9.180;2022-08-03T11:59:33;58.30;18.00
423;DHT22;198;48.752;9.180;2022-08-03T12:02:10;59.00;18.40
423;DHT22;198;48.752;9.180;2022-08-03T12:04:53;58.90;17.60
423;DHT22;198;48.752;9.180;2022-08-03T12:07:22;58.20;17.90
423;DHT22;198;48.752;9.180;2022-08-03T12:10:08;58.70;18.00
423;DHT22;198;48.752;9.180;2022-08-03T12:12:34;59.30;18.00
423;DHT22;198;48.752;9.180;2022-08-03T12:15:00;59.70;17.70
423;DHT22;198;48.752;9.180;2022-08-03T12:17:37;59.60;17.50
423;DHT22;198;48.752;9.180;2022-08-03T12:20:05;58.80;18.20
423;DHT22;198;48.752;9.180;2022-08-03T12:22:35;59.00;17.90
423;DHT22;198;48.752;9.180;2022-08-03T12:25:06;59.20;18.00
423;DHT22;198;48.752;9.180;2022-08-03T12:27:32;58.10;17.60
423;DHT22;198;48.752;9.180;2022-08-03T12:29:58;57.20;18.00
423;DHT22;198;48.752;9.180;2022-08-03T12:32:27;57.60;19.20
423;DHT22;198;48.752;9.180;2022-08-03T12:34:53;58.20;18.10
423;DHT22;198;48.752;9.180;2022-08-03T12:37:21;58.70;17.90
423;DHT22;198;48.752;9.180;2022-08-03T12:39:51;58.90;18.10
423;DHT22;198;48.752;9.180;2022-08-03T12:42:17;58.50;18.50
423;DHT22;198;48.752;9.180;2022-08-03T12:44:43;57.60;18.10
423;DHT22;198;48.752;9.180;2022-08-03T12:47:10;56.80;19.20
423;DHT22;198;48.752;9.180;2022-08-03T12:49:47;57.90;18.90
423;DHT22;198;48.752;9.180;2022-08-03T12:52:13;58.20;18.30
423;DHT22;198;48.752;9.180;2022-08-03T12:54:39;58.10;18.50
423;DHT22;198;48.752;9.180;2022-08-03T12:57:07;58.60;18.10
423;DHT22;198;48.752;9.180;2022-08-03T12:59:36;59.30;17.70
423;DHT22;198;48.752;9.180;2022-08-03T13:02:03;59.10;18.10
423;DHT22;198;48.752;9.180;2022-08-03T13:04:31;58.80;19.00
423;DHT22;198;48.752;9.180;2022-08-03T13:07:08;58.30;18.40
423;DHT22;198;48.752;9.180;2022-08-03T13:09:47;57.70;18.50
423;DHT22;198;48.752;9.180;2022-08-03T13:12:15;57.50;18.60
423;DHT22;198;48.752;9.180;2022-08-03T13:14:42;58.50;17.80
423;DHT22;198;48.752;9.180;2022-08-03T13:17:08;59.10;18.40
423;DHT22;198;48.752;9.180;2022-08-03T13:19:35;59.40;17.60
423;DHT22;198;48.752;9.180;2022-08-03T13:22:13;59.70;18.20
423;DHT22;198;48.752;9.180;2022-08-03T13:24:39;59.40;17.40
423;DHT22;198;48.752;9.180;2022-08-03T13:27:05;58.40;17.70
423;DHT22;198;48.752;9.180;2022-08-03T13:29:32;56.80;18.40
423;DHT22;198;48.752;9.180;2022-08-03T13:31:57;56.80;19.00
423;DHT22;198;48.752;9.180;2022-08-03T13:34:23;57.20;18.60
423;DHT22;198;48.752;9.180;2022-08-03T13:36:48;57.40;18.70
423;DHT22;198;48.752;9.180;2022-08-03T13:39:14;57.80;17.80
423;DHT22;198;48.752;9.180;2022-08-03T13:41:40;57.30;18.50
423;DHT22;198;48.752;9.180;2022-08-03T13:44:05;57.50;19.00
423;DHT22;198;48.752;9.180;2022-08-03T13:46:31;57.50;18.80
423;DHT22;198;48.752;9.180;2022-08-03T13:48:56;57.40;18.10
423;DHT22;198;48.752;9.180;2022-08-03T13:51:22;56.90;18.10
423;DHT22;198;48.752;9.180;2022-08-03T13:53:48;57.00;18.80
423;DHT22;198;48.752;9.180;2022-08-03T13:56:13;56.60;19.30
423;DHT22;198;48.752;9.180;2022-08-03T13:58:39;56.50;18.60
423;DHT22;198;48.752;9.180;2022-08-03T14:01:05;56.30;18.30
423;DHT22;198;48.752;9.180;2022-08-03T14:03:30;55.20;19.10
423;DHT22;198;48.752;9.180;2022-08-03T14:05:56;54.20;19.20
423;DHT22;198;48.752;9.180;2022-08-03T14:08:21;54.20;19.20
423;DHT22;198;48.752;9.180;2022-08-03T14:10:47;54.20;19.60
423;DHT22;198;48.752;9.180;2022-08-03T14:13:13;54.60;19.00
423;DHT22;198;48.752;9.180;2022-08-03T14:15:40;53.80;18.90
423;DHT22;198;48.752;9.180;2022-08-03T14:18:06;54.10;19.30
423;DHT22;198;48.752;9.180;2022-08-03T14:20:32;54.40;19.60
423;DHT22;198;48.752;9.180;2022-08-03T14:22:57;54.70;19.20
423;DHT22;198;48.752;9.180;2022-08-03T14:25:23;54.20;18.80
423;DHT22;198;48.752;9.180;2022-08-03T14:27:49;53.70;19.00
423;DHT22;198;48.752;9.180;2022-08-03T14:30:14;53.80;19.40
423;DHT22;198;48.752;9.180;2022-08-03T14:32:40;54.00;19.30
423;DHT22;198;48.752;9.180;2022-08-03T14:35:06;53.70;19.20
423;DHT22;198;48.752;9.180;2022-08-03T14:37:31;53.30;19.30
423;DHT22;198;48.752;9.180;2022-08-03T14:39:58;52.60;19.80
423;DHT22;198;48.752;9.180;2022-08-03T14:42:24;52.50;20.00
423;DHT22;198;48.752;9.180;2022-08-03T14:44:49;52.50;19.90
423;DHT22;198;48.752;9.180;2022-08-03T14:47:15;52.20;19.90
423;DHT22;198;48.752;9.180;2022-08-03T14:49:41;52.30;19.80
423;DHT22;198;48.752;9.180;2022-08-03T14:52:06;52.10;20.00
423;DHT22;198;48.752;9.180;2022-08-03T14:54:32;51.40;20.30
423;DHT22;198;48.752;9.180;2022-08-03T14:56:58;51.20;20.50
423;DHT22;198;48.752;9.180;2022-08-03T14:59:24;51.30;20.30
423;DHT22;198;48.752;9.180;2022-08-03T15:01:50;51.50;20.30
423;DHT22;198;48.752;9.180;2022-08-03T15:04:16;51.50;21.10
423;DHT22;198;48.752;9.180;2022-08-03T15:06:41;51.50;20.20
423;DHT22;198;48.752;9.180;2022-08-03T15:09:07;52.10;20.30
423;DHT22;198;48.752;9.180;2022-08-03T15:11:32;51.70;20.00
423;DHT22;198;48.752;9.180;2022-08-03T15:13:59;51.50;20.20
423;DHT22;198;48.752;9.180;2022-08-03T15:16:24;51.50;20.20
423;DHT22;198;48.752;9.180;2022-08-03T15:18:50;51.60;20.60
423;DHT22;198;48.752;9.180;2022-08-03T15:21:15;51.50;20.20
423;DHT22;198;48.752;9.180;2022-08-03T15:23:40;51.50;20.50
423;DHT22;198;48.752;9.180;2022-08-03T15:26:06;51.90;20.40
423;DHT22;198;48.752;9.180;2022-08-03T15:28:32;52.10;20.60
423;DHT22;198;48.752;9.180;2022-08-03T15:30:57;52.00;20.10
423;DHT22;198;48.752;9.180;2022-08-03T15:33:23;51.70;20.20
423;DHT22;198;48.752;9.180;2022-08-03T15:35:48;51.60;20.30
423;DHT22;198;48.752;9.180;2022-08-03T15:38:14;51.30;20.20
423;DHT22;198;48.752;9.180;2022-08-03T15:40:40;51.50;21.20
423;DHT22;198;48.752;9.180;2022-08-03T15:43:06;51.50;20.10
423;DHT22;198;48.752;9.180;2022-08-03T15:45:31;51.20;20.20
423;DHT22;198;48.752;9.180;2022-08-03T15:47:57;50.80;20.20
423;DHT22;198;48.752;9.180;2022-08-03T15:50:22;50.40;20.40
423;DHT22;198;48.752;9.180;2022-08-03T15:52:48;50.00;20.50
423;DHT22;198;48.752;9.180;2022-08-03T15:55:13;49.80;20.90
423;DHT22;198;48.752;9.180;2022-08-03T15:57:39;49.30;21.00
423;DHT22;198;48.752;9.180;2022-08-03T16:00:06;48.70;21.50
423;DHT22;198;48.752;9.180;2022-08-03T16:02:32;48.70;22.70
423;DHT22;198;48.752;9.180;2022-08-03T16:04:58;48.20;22.00
423;DHT22;198;48.752;9.180;2022-08-03T16:07:23;48.50;22.40
423;DHT22;198;48.752;9.180;2022-08-03T16:10:08;48.50;21.80
423;DHT22;198;48.752;9.180;2022-08-03T16:12:35;48.70;21.50
423;DHT22;198;48.752;9.180;2022-08-03T16:15:00;48.60;21.40
423;DHT22;198;48.752;9.180;2022-08-03T16:17:26;48.40;21.80
423;DHT22;198;48.752;9.180;2022-08-03T16:19:52;48.20;21.40
423;DHT22;198;48.752;9.180;2022-08-03T16:22:18;48.00;21.80
423;DHT22;198;48.752;9.180;2022-08-03T16:24:43;47.70;21.80
423;DHT22;198;48.752;9.180;2022-08-03T16:27:09;47.50;22.10
423;DHT22;198;48.752;9.180;2022-08-03T16:29:34;47.20;21.70
423;DHT22;198;48.752;9.180;2022-08-03T16:32:00;46.80;22.00
423;DHT22;198;48.752;9.180;2022-08-03T16:34:31;46.80;22.20
423;DHT22;198;48.752;9.180;2022-08-03T16:36:57;46.60;22.30
423;DHT22;198;48.752;9.180;2022-08-03T16:39:22;46.60;22.40
423;DHT22;198;48.752;9.180;2022-08-03T16:41:48;46.30;21.90
423;DHT22;198;48.752;9.180;2022-08-03T16:44:14;46.00;22.30
423;DHT22;198;48.752;9.180;2022-08-03T16:46:39;45.30;22.50
423;DHT22;198;48.752;9.180;2022-08-03T16:49:07;45.10;22.90
423;DHT22;198;48.752;9.180;2022-08-03T16:51:33;45.00;22.80
423;DHT22;198;48.752;9.180;2022-08-03T16:53:58;45.00;23.10
423;DHT22;198;48.752;9.180;2022-08-03T16:56:24;45.00;22.90
423;DHT22;198;48.752;9.180;2022-08-03T16:58:49;44.30;23.10